ASA230 PANC-KSEA
Flight info
| Callsign | ASA230 |
|---|---|
| Flight time | N/A |
| Altitude | 35000 |
| Route | JOH LAIRE BKA DUGGS VIXOR MARNR8 |
| Aircraft | B39M/M-SDE2E3FGHIRWXY/LB1 |
Departure
| Time | 2026-05-04 00:22 |
|---|---|
| Airport | Ted Stevens Anchorage International Airport (PANC) |
Arrival
| Time | N/A |
|---|---|
| Airport | Seattle–Tacoma International Airport (KSEA) |
| Time | Latitude | Longitude | Altitude | Speed | Heading |
|---|---|---|---|---|---|
| 2026-05-03 23:43 | 61.17576 | -149.98503 | 118 ft | 0 kts | 105° |
| 2026-05-04 00:11 | 61.17579 | -149.98524 | 118 ft | 2 kts | 105° |
| 2026-05-04 00:11 | 61.17583 | -149.98555 | 118 ft | 2 kts | 105° |
| 2026-05-04 00:11 | 61.17587 | -149.98585 | 118 ft | 2 kts | 105° |
| 2026-05-04 00:12 | 61.17591 | -149.98614 | 118 ft | 2 kts | 105° |
| 2026-05-04 00:12 | 61.17595 | -149.98645 | 118 ft | 2 kts | 105° |
| 2026-05-04 00:12 | 61.17599 | -149.98674 | 118 ft | 2 kts | 105° |
| 2026-05-04 00:12 | 61.17605 | -149.98698 | 118 ft | 1 kts | 152° |
| 2026-05-04 00:13 | 61.17610 | -149.98703 | 118 ft | 1 kts | 164° |
| 2026-05-04 00:13 | 61.17614 | -149.98706 | 118 ft | 0 kts | 160° |
| 2026-05-04 00:16 | 61.17603 | -149.98695 | 118 ft | 5 kts | 157° |
| 2026-05-04 00:16 | 61.17544 | -149.98647 | 118 ft | 11 kts | 158° |
| 2026-05-04 00:16 | 61.17452 | -149.98584 | 118 ft | 16 kts | 172° |
| 2026-05-04 00:17 | 61.17337 | -149.98665 | 118 ft | 17 kts | 210° |
| 2026-05-04 00:17 | 61.17239 | -149.98801 | 118 ft | 15 kts | 227° |
| 2026-05-04 00:17 | 61.17170 | -149.98962 | 118 ft | 14 kts | 228° |
| 2026-05-04 00:17 | 61.17126 | -149.99130 | 118 ft | 14 kts | 269° |
| 2026-05-04 00:18 | 61.17126 | -149.99397 | 118 ft | 19 kts | 270° |
| 2026-05-04 00:18 | 61.17125 | -149.99663 | 118 ft | 17 kts | 269° |
| 2026-05-04 00:18 | 61.17124 | -149.99915 | 118 ft | 19 kts | 269° |
| 2026-05-04 00:18 | 61.17124 | -150.00259 | 118 ft | 25 kts | 270° |
| 2026-05-04 00:19 | 61.17123 | -150.00603 | 118 ft | 22 kts | 269° |
| 2026-05-04 00:19 | 61.17077 | -150.00816 | 118 ft | 15 kts | 186° |
| 2026-05-04 00:19 | 61.16987 | -150.00751 | 118 ft | 13 kts | 118° |
| 2026-05-04 00:19 | 61.16976 | -150.00580 | 118 ft | 0 kts | 90° |
| 2026-05-04 00:20 | 61.16976 | -150.00575 | 118 ft | 1 kts | 90° |
| 2026-05-04 00:20 | 61.16977 | -150.00320 | 118 ft | 47 kts | 90° |
| 2026-05-04 00:21 | 61.16978 | -149.99158 | 118 ft | 110 kts | 90° |
| 2026-05-04 00:21 | 61.16979 | -149.97220 | 118 ft | 158 kts | 90° |
| 2026-05-04 00:21 | 61.16982 | -149.94833 | 291 ft | 158 kts | 90° |
| 2026-05-04 00:21 | 61.16991 | -149.92558 | 489 ft | 169 kts | 90° |
| 2026-05-04 00:22 | 61.16682 | -149.90227 | 1101 ft | 176 kts | 125° |
| 2026-05-04 00:22 | 61.16051 | -149.88057 | 1709 ft | 183 kts | 112° |
| 2026-05-04 00:22 | 61.15586 | -149.85525 | 2147 ft | 198 kts | 108° |
| 2026-05-04 00:22 | 61.15106 | -149.82747 | 2619 ft | 215 kts | 109° |
| 2026-05-04 00:23 | 61.14547 | -149.79739 | 3112 ft | 232 kts | 110° |
| 2026-05-04 00:23 | 61.13935 | -149.76556 | 3644 ft | 246 kts | 110° |
| 2026-05-04 00:23 | 61.13292 | -149.73233 | 4294 ft | 255 kts | 110° |
| 2026-05-04 00:23 | 61.12635 | -149.69829 | 5135 ft | 256 kts | 111° |
| 2026-05-04 00:24 | 61.11980 | -149.66441 | 5938 ft | 257 kts | 111° |
| 2026-05-04 00:24 | 61.11319 | -149.63003 | 6686 ft | 261 kts | 111° |
| 2026-05-04 00:24 | 61.10655 | -149.59541 | 7389 ft | 265 kts | 112° |
| 2026-05-04 00:24 | 61.09964 | -149.55974 | 8121 ft | 269 kts | 113° |
| 2026-05-04 00:25 | 61.09266 | -149.52393 | 8842 ft | 272 kts | 114° |
| 2026-05-04 00:25 | 61.08557 | -149.48763 | 9545 ft | 276 kts | 115° |
| 2026-05-04 00:25 | 61.07835 | -149.45088 | 10185 ft | 281 kts | 115° |
| 2026-05-04 00:25 | 61.07080 | -149.41270 | 10582 ft | 295 kts | 116° |
| 2026-05-04 00:26 | 61.06293 | -149.37270 | 10915 ft | 310 kts | 115° |
| 2026-05-04 00:26 | 61.05477 | -149.33095 | 11284 ft | 324 kts | 116° |
| 2026-05-04 00:26 | 61.04619 | -149.28719 | 11649 ft | 338 kts | 116° |
| 2026-05-04 00:26 | 61.03702 | -149.24086 | 11899 ft | 355 kts | 116° |
| 2026-05-04 00:27 | 61.02755 | -149.19324 | 12267 ft | 365 kts | 116° |
| 2026-05-04 00:27 | 61.01779 | -149.14462 | 12855 ft | 368 kts | 117° |
| 2026-05-04 00:27 | 61.00809 | -149.09602 | 13469 ft | 371 kts | 116° |
| 2026-05-04 00:27 | 60.99841 | -149.04709 | 13922 ft | 377 kts | 116° |
| 2026-05-04 00:28 | 60.98846 | -148.99693 | 14393 ft | 383 kts | 116° |
| 2026-05-04 00:28 | 60.97818 | -148.94606 | 14944 ft | 386 kts | 117° |
| 2026-05-04 00:28 | 60.96801 | -148.89513 | 15423 ft | 391 kts | 118° |
| 2026-05-04 00:28 | 60.95753 | -148.84311 | 15893 ft | 396 kts | 117° |
| 2026-05-04 00:29 | 60.94694 | -148.79042 | 16341 ft | 401 kts | 118° |
| 2026-05-04 00:29 | 60.93628 | -148.73772 | 16848 ft | 404 kts | 119° |
| 2026-05-04 00:29 | 60.92548 | -148.68459 | 17361 ft | 406 kts | 118° |
| 2026-05-04 00:29 | 60.91482 | -148.63119 | 17790 ft | 411 kts | 118° |
| 2026-05-04 00:30 | 60.90407 | -148.57628 | 18188 ft | 416 kts | 119° |
| 2026-05-04 00:30 | 60.89290 | -148.52113 | 18621 ft | 419 kts | 119° |
| 2026-05-04 00:30 | 60.88165 | -148.46632 | 19057 ft | 423 kts | 118° |
| 2026-05-04 00:30 | 60.87020 | -148.41101 | 19526 ft | 425 kts | 120° |
| 2026-05-04 00:31 | 60.85852 | -148.35484 | 19939 ft | 429 kts | 120° |
| 2026-05-04 00:31 | 60.84697 | -148.29923 | 20380 ft | 432 kts | 120° |
| 2026-05-04 00:31 | 60.83527 | -148.24243 | 20876 ft | 433 kts | 120° |
| 2026-05-04 00:31 | 60.82366 | -148.18611 | 21249 ft | 437 kts | 121° |
| 2026-05-04 00:32 | 60.81174 | -148.12888 | 21684 ft | 438 kts | 120° |
| 2026-05-04 00:32 | 60.79965 | -148.07079 | 21997 ft | 444 kts | 121° |
| 2026-05-04 00:32 | 60.78758 | -148.01274 | 22386 ft | 447 kts | 121° |
| 2026-05-04 00:32 | 60.77536 | -147.95488 | 22684 ft | 451 kts | 121° |
| 2026-05-04 00:33 | 60.76285 | -147.89565 | 23121 ft | 452 kts | 121° |
| 2026-05-04 00:33 | 60.73783 | -147.77811 | 23857 ft | 457 kts | 121° |
| 2026-05-04 00:33 | 60.72502 | -147.71819 | 24206 ft | 460 kts | 121° |
| 2026-05-04 00:34 | 60.71236 | -147.65875 | 24596 ft | 461 kts | 121° |
| 2026-05-04 00:34 | 60.69960 | -147.59897 | 24861 ft | 465 kts | 121° |
| 2026-05-04 00:34 | 60.68676 | -147.53848 | 25080 ft | 471 kts | 120° |
| 2026-05-04 00:34 | 60.67397 | -147.47737 | 25480 ft | 472 kts | 121° |
| 2026-05-04 00:35 | 60.66082 | -147.41563 | 25823 ft | 474 kts | 121° |
| 2026-05-04 00:35 | 60.64738 | -147.35356 | 26128 ft | 477 kts | 122° |
| 2026-05-04 00:35 | 60.63394 | -147.29189 | 26463 ft | 478 kts | 122° |
| 2026-05-04 00:35 | 60.62060 | -147.23088 | 26799 ft | 480 kts | 123° |
| 2026-05-04 00:36 | 60.60693 | -147.16843 | 27082 ft | 483 kts | 123° |
| 2026-05-04 00:36 | 60.59325 | -147.10617 | 27255 ft | 488 kts | 123° |
| 2026-05-04 00:36 | 60.57943 | -147.04335 | 27638 ft | 489 kts | 122° |
| 2026-05-04 00:36 | 60.56547 | -146.97995 | 27868 ft | 493 kts | 122° |
| 2026-05-04 00:37 | 60.55155 | -146.91696 | 28270 ft | 492 kts | 123° |
| 2026-05-04 00:37 | 60.53749 | -146.85333 | 28475 ft | 496 kts | 123° |
| 2026-05-04 00:37 | 60.52336 | -146.78992 | 28698 ft | 499 kts | 123° |
| 2026-05-04 00:37 | 60.50921 | -146.72672 | 29141 ft | 497 kts | 123° |
| 2026-05-04 00:38 | 60.49513 | -146.66356 | 29620 ft | 493 kts | 123° |
| 2026-05-04 00:38 | 60.48092 | -146.59990 | 29970 ft | 494 kts | 124° |
| 2026-05-04 00:38 | 60.46671 | -146.53729 | 30303 ft | 493 kts | 124° |
| 2026-05-04 00:38 | 60.45195 | -146.47464 | 30746 ft | 489 kts | 125° |
| 2026-05-04 00:39 | 60.43710 | -146.41316 | 31147 ft | 488 kts | 126° |
| 2026-05-04 00:39 | 60.42229 | -146.35275 | 31494 ft | 487 kts | 127° |
| 2026-05-04 00:39 | 60.40723 | -146.29164 | 31861 ft | 486 kts | 128° |
| 2026-05-04 00:39 | 60.39209 | -146.23044 | 32178 ft | 485 kts | 128° |
| 2026-05-04 00:40 | 60.37708 | -146.16974 | 32525 ft | 484 kts | 128° |
| 2026-05-04 00:40 | 60.36229 | -146.10983 | 32948 ft | 481 kts | 128° |
| 2026-05-04 00:40 | 60.34725 | -146.04897 | 33231 ft | 481 kts | 128° |
| 2026-05-04 00:40 | 60.33230 | -145.98869 | 33434 ft | 483 kts | 128° |
| 2026-05-04 00:41 | 60.31748 | -145.92917 | 33690 ft | 483 kts | 128° |
| 2026-05-04 00:41 | 60.30220 | -145.86798 | 33870 ft | 485 kts | 128° |
| 2026-05-04 00:41 | 60.28717 | -145.80788 | 34127 ft | 485 kts | 128° |
| 2026-05-04 00:41 | 60.27210 | -145.74760 | 34428 ft | 484 kts | 128° |
| 2026-05-04 00:42 | 60.25708 | -145.68764 | 34672 ft | 484 kts | 128° |
| 2026-05-04 00:42 | 60.24194 | -145.62727 | 34937 ft | 482 kts | 128° |
| 2026-05-04 00:42 | 60.22681 | -145.56717 | 35069 ft | 484 kts | 128° |
| 2026-05-04 00:43 | 60.19632 | -145.44652 | 35191 ft | 483 kts | 128° |
| 2026-05-04 00:43 | 60.16606 | -145.32695 | 35197 ft | 482 kts | 129° |
| 2026-05-04 00:44 | 60.13581 | -145.20789 | 35194 ft | 481 kts | 129° |
| 2026-05-04 00:44 | 60.10506 | -145.08908 | 35202 ft | 486 kts | 128° |
| 2026-05-04 00:45 | 60.07430 | -144.97040 | 35198 ft | 482 kts | 128° |
| 2026-05-04 00:45 | 60.04332 | -144.85138 | 35200 ft | 486 kts | 128° |
| 2026-05-04 00:46 | 60.01221 | -144.73219 | 35204 ft | 486 kts | 128° |
| 2026-05-04 00:46 | 59.98103 | -144.61285 | 35209 ft | 483 kts | 128° |
| 2026-05-04 00:47 | 59.95002 | -144.49515 | 35210 ft | 486 kts | 128° |
| 2026-05-04 00:47 | 59.91861 | -144.37645 | 35213 ft | 485 kts | 128° |
| 2026-05-04 00:48 | 59.88693 | -144.25740 | 35217 ft | 486 kts | 129° |
| 2026-05-04 00:48 | 59.85538 | -144.13969 | 35221 ft | 486 kts | 129° |
| 2026-05-04 00:49 | 59.82367 | -144.02205 | 35219 ft | 488 kts | 129° |
| 2026-05-04 00:49 | 59.79172 | -143.90396 | 35226 ft | 489 kts | 129° |
| 2026-05-04 00:50 | 59.75964 | -143.78600 | 35226 ft | 487 kts | 129° |
| 2026-05-04 00:50 | 59.72739 | -143.66872 | 35227 ft | 489 kts | 129° |
| 2026-05-04 00:51 | 59.69506 | -143.55135 | 35224 ft | 489 kts | 128° |
| 2026-05-04 00:51 | 59.66260 | -143.43367 | 35228 ft | 490 kts | 128° |
| 2026-05-04 00:52 | 59.62967 | -143.31517 | 35223 ft | 489 kts | 129° |
| 2026-05-04 00:52 | 59.59721 | -143.19856 | 35221 ft | 490 kts | 129° |
| 2026-05-04 00:53 | 59.56421 | -143.08121 | 35227 ft | 492 kts | 129° |
| 2026-05-04 00:53 | 59.53142 | -142.96487 | 35225 ft | 486 kts | 130° |
| 2026-05-04 00:54 | 59.49847 | -142.84897 | 35230 ft | 490 kts | 129° |
| 2026-05-04 00:54 | 59.46503 | -142.73206 | 35231 ft | 492 kts | 129° |
| 2026-05-04 00:55 | 59.43154 | -142.61530 | 35230 ft | 494 kts | 129° |
| 2026-05-04 00:55 | 59.39801 | -142.49815 | 35240 ft | 491 kts | 129° |
| 2026-05-04 00:56 | 59.36435 | -142.38197 | 35240 ft | 494 kts | 129° |
| 2026-05-04 00:56 | 59.33038 | -142.26533 | 35242 ft | 494 kts | 130° |
| 2026-05-04 00:57 | 59.29640 | -142.14911 | 35241 ft | 494 kts | 129° |
| 2026-05-04 00:57 | 59.26227 | -142.03290 | 35243 ft | 494 kts | 129° |
| 2026-05-04 00:58 | 59.22836 | -141.91775 | 35248 ft | 494 kts | 130° |
| 2026-05-04 00:58 | 59.19398 | -141.80234 | 35245 ft | 497 kts | 129° |
| 2026-05-04 00:59 | 59.15924 | -141.68608 | 35250 ft | 496 kts | 129° |
| 2026-05-04 00:59 | 59.12477 | -141.57126 | 35250 ft | 495 kts | 129° |
| 2026-05-04 01:00 | 59.08986 | -141.45528 | 35429 ft | 497 kts | 129° |
| 2026-05-04 01:00 | 59.05495 | -141.34018 | 35160 ft | 496 kts | 130° |
| 2026-05-04 01:01 | 59.02026 | -141.22638 | 35213 ft | 493 kts | 130° |
| 2026-05-04 01:01 | 59.00268 | -141.16885 | 35336 ft | 498 kts | 130° |
| 2026-05-04 01:01 | 58.98532 | -141.11224 | 35261 ft | 494 kts | 130° |
| 2026-05-04 01:02 | 58.95011 | -140.99828 | 35261 ft | 494 kts | 130° |
| 2026-05-04 01:02 | 58.91465 | -140.88500 | 35261 ft | 494 kts | 130° |
| 2026-05-04 01:03 | 58.87929 | -140.77063 | 35271 ft | 498 kts | 129° |
| 2026-05-04 01:03 | 58.84406 | -140.65681 | 35264 ft | 497 kts | 129° |
| 2026-05-04 01:04 | 58.80849 | -140.54294 | 35276 ft | 498 kts | 129° |
| 2026-05-04 01:04 | 58.77168 | -140.43121 | 35274 ft | 494 kts | 133° |
| 2026-05-04 01:05 | 58.73302 | -140.32285 | 35281 ft | 491 kts | 134° |
| 2026-05-04 01:05 | 58.69407 | -140.21547 | 35284 ft | 493 kts | 134° |
| 2026-05-04 01:06 | 58.65531 | -140.10812 | 35287 ft | 490 kts | 134° |
| 2026-05-04 01:06 | 58.61650 | -140.00043 | 35286 ft | 493 kts | 134° |
| 2026-05-04 01:07 | 58.57774 | -139.89285 | 35291 ft | 492 kts | 134° |
| 2026-05-04 01:07 | 58.53892 | -139.78561 | 35291 ft | 493 kts | 133° |
| 2026-05-04 01:08 | 58.49981 | -139.67807 | 35294 ft | 493 kts | 133° |
| 2026-05-04 01:08 | 58.46056 | -139.57071 | 35300 ft | 495 kts | 133° |
| 2026-05-04 01:09 | 58.42144 | -139.46390 | 35300 ft | 492 kts | 133° |
| 2026-05-04 01:09 | 58.38219 | -139.35736 | 35307 ft | 495 kts | 133° |
| 2026-05-04 01:10 | 58.34293 | -139.25114 | 35308 ft | 495 kts | 134° |
| 2026-05-04 01:10 | 58.30337 | -139.14459 | 35311 ft | 494 kts | 134° |
| 2026-05-04 01:11 | 58.26389 | -139.03879 | 35314 ft | 496 kts | 134° |
| 2026-05-04 01:11 | 58.22414 | -138.93274 | 35317 ft | 496 kts | 134° |
| 2026-05-04 01:12 | 58.18404 | -138.82622 | 35319 ft | 496 kts | 134° |
| 2026-05-04 01:12 | 58.14423 | -138.72098 | 35318 ft | 498 kts | 134° |
| 2026-05-04 01:13 | 58.10409 | -138.61537 | 35319 ft | 498 kts | 133° |
| 2026-05-04 01:13 | 58.06363 | -138.50931 | 35320 ft | 497 kts | 134° |
| 2026-05-04 01:14 | 58.02332 | -138.40411 | 35320 ft | 498 kts | 133° |
| 2026-05-04 01:14 | 57.98299 | -138.29927 | 35318 ft | 499 kts | 134° |
| 2026-05-04 01:15 | 57.94246 | -138.19438 | 35314 ft | 495 kts | 134° |
| 2026-05-04 01:15 | 57.90182 | -138.08975 | 35315 ft | 498 kts | 134° |
| 2026-05-04 01:16 | 57.86132 | -137.98592 | 35317 ft | 497 kts | 134° |
| 2026-05-04 01:16 | 57.82072 | -137.88213 | 35323 ft | 495 kts | 134° |
| 2026-05-04 01:17 | 57.77988 | -137.77847 | 35316 ft | 497 kts | 133° |
| 2026-05-04 01:17 | 57.73896 | -137.67499 | 35319 ft | 495 kts | 133° |
| 2026-05-04 01:18 | 57.69807 | -137.57194 | 35317 ft | 498 kts | 133° |
| 2026-05-04 01:18 | 57.65675 | -137.46835 | 35321 ft | 498 kts | 133° |
| 2026-05-04 01:19 | 57.61558 | -137.36546 | 35324 ft | 498 kts | 133° |
| 2026-05-04 01:19 | 57.57412 | -137.26241 | 35318 ft | 496 kts | 134° |
| 2026-05-04 01:20 | 57.53301 | -137.16057 | 35321 ft | 497 kts | 134° |
| 2026-05-04 01:20 | 57.49147 | -137.05820 | 35323 ft | 496 kts | 134° |
| 2026-05-04 01:21 | 57.45016 | -136.95682 | 35325 ft | 499 kts | 134° |
| 2026-05-04 01:21 | 57.40831 | -136.85446 | 35327 ft | 497 kts | 133° |
| 2026-05-04 01:22 | 57.36668 | -136.75310 | 35333 ft | 496 kts | 133° |
| 2026-05-04 01:22 | 57.32494 | -136.65196 | 35331 ft | 498 kts | 133° |
| 2026-05-04 01:23 | 57.28317 | -136.55115 | 35335 ft | 496 kts | 133° |
| 2026-05-04 01:23 | 57.24116 | -136.45015 | 35329 ft | 497 kts | 133° |
| 2026-05-04 01:24 | 57.19918 | -136.34966 | 35333 ft | 498 kts | 134° |
| 2026-05-04 01:24 | 57.15729 | -136.24983 | 35334 ft | 496 kts | 134° |
| 2026-05-04 01:25 | 57.11529 | -136.15018 | 35336 ft | 496 kts | 134° |
| 2026-05-04 01:25 | 57.07274 | -136.04974 | 35338 ft | 497 kts | 134° |
| 2026-05-04 01:26 | 57.03075 | -135.95088 | 35339 ft | 495 kts | 133° |
| 2026-05-04 01:26 | 56.98821 | -135.85104 | 35338 ft | 497 kts | 133° |
| 2026-05-04 01:27 | 56.94572 | -135.75154 | 35332 ft | 499 kts | 133° |
| 2026-05-04 01:27 | 56.90329 | -135.65288 | 35334 ft | 497 kts | 133° |
| 2026-05-04 01:28 | 56.86064 | -135.55370 | 35330 ft | 498 kts | 134° |
| 2026-05-04 01:28 | 56.81407 | -135.46173 | 35317 ft | 493 kts | 141° |
| 2026-05-04 01:29 | 56.76469 | -135.37549 | 35315 ft | 492 kts | 141° |
| 2026-05-04 01:29 | 56.71558 | -135.29007 | 35307 ft | 491 kts | 142° |
| 2026-05-04 01:30 | 56.66657 | -135.20389 | 35299 ft | 492 kts | 141° |
| 2026-05-04 01:30 | 56.61778 | -135.11732 | 35293 ft | 495 kts | 141° |
| 2026-05-04 01:31 | 56.56867 | -135.03011 | 35286 ft | 493 kts | 141° |
| 2026-05-04 01:31 | 56.51995 | -134.94380 | 35285 ft | 496 kts | 141° |
| 2026-05-04 01:32 | 56.47075 | -134.85710 | 35284 ft | 494 kts | 141° |
| 2026-05-04 01:32 | 56.42186 | -134.77129 | 35280 ft | 495 kts | 140° |
| 2026-05-04 01:33 | 56.37226 | -134.68449 | 35275 ft | 494 kts | 140° |
| 2026-05-04 01:33 | 56.32312 | -134.59886 | 35281 ft | 494 kts | 140° |
| 2026-05-04 01:34 | 56.27382 | -134.51329 | 35286 ft | 493 kts | 140° |
| 2026-05-04 01:34 | 56.22457 | -134.42813 | 35283 ft | 495 kts | 140° |
| 2026-05-04 01:35 | 56.17511 | -134.34296 | 35271 ft | 493 kts | 141° |
| 2026-05-04 01:35 | 56.12578 | -134.25824 | 35270 ft | 494 kts | 141° |
| 2026-05-04 01:36 | 56.07600 | -134.17305 | 35271 ft | 494 kts | 141° |
| 2026-05-04 01:36 | 56.02687 | -134.08926 | 35273 ft | 492 kts | 141° |
| 2026-05-04 01:37 | 55.97727 | -134.00501 | 35276 ft | 494 kts | 141° |
| 2026-05-04 01:37 | 55.92753 | -133.92075 | 35275 ft | 493 kts | 140° |
| 2026-05-04 01:38 | 55.87784 | -133.83699 | 35275 ft | 493 kts | 140° |
| 2026-05-04 01:38 | 55.82838 | -133.75404 | 35270 ft | 494 kts | 140° |
| 2026-05-04 01:39 | 55.77836 | -133.67033 | 35266 ft | 494 kts | 140° |
| 2026-05-04 01:39 | 55.72854 | -133.58730 | 35259 ft | 494 kts | 140° |
| 2026-05-04 01:40 | 55.67862 | -133.50447 | 35262 ft | 495 kts | 140° |
| 2026-05-04 01:40 | 55.62864 | -133.42184 | 35260 ft | 494 kts | 140° |
| 2026-05-04 01:41 | 55.57838 | -133.33907 | 35255 ft | 495 kts | 141° |
| 2026-05-04 01:41 | 55.52811 | -133.25656 | 35257 ft | 493 kts | 141° |
| 2026-05-04 01:42 | 55.47800 | -133.17452 | 35250 ft | 494 kts | 140° |
| 2026-05-04 01:42 | 55.42783 | -133.09273 | 35249 ft | 495 kts | 140° |
| 2026-05-04 01:43 | 55.37725 | -133.01059 | 35241 ft | 495 kts | 140° |
| 2026-05-04 01:43 | 55.32697 | -132.92921 | 35233 ft | 496 kts | 140° |
| 2026-05-04 01:44 | 55.27620 | -132.84734 | 35234 ft | 495 kts | 140° |
| 2026-05-04 01:44 | 55.22565 | -132.76617 | 35243 ft | 495 kts | 140° |
| 2026-05-04 01:45 | 55.17513 | -132.68535 | 35239 ft | 495 kts | 140° |
| 2026-05-04 01:45 | 55.09903 | -132.56407 | 35218 ft | 494 kts | 140° |
| 2026-05-04 01:46 | 55.04845 | -132.48383 | 35197 ft | 495 kts | 139° |
| 2026-05-04 01:46 | 54.99765 | -132.40349 | 35192 ft | 494 kts | 139° |
| 2026-05-04 01:47 | 54.94696 | -132.32362 | 35192 ft | 493 kts | 140° |
| 2026-05-04 01:47 | 54.89615 | -132.24385 | 35185 ft | 492 kts | 140° |
| 2026-05-04 01:48 | 54.84531 | -132.16444 | 35183 ft | 494 kts | 140° |
| 2026-05-04 01:48 | 54.79457 | -132.08540 | 35187 ft | 492 kts | 140° |
| 2026-05-04 01:49 | 54.74366 | -132.00635 | 35182 ft | 493 kts | 139° |
| 2026-05-04 01:49 | 54.69312 | -131.92813 | 35183 ft | 493 kts | 139° |
| 2026-05-04 01:50 | 54.64194 | -131.84917 | 35179 ft | 493 kts | 139° |
| 2026-05-04 01:50 | 54.59101 | -131.77095 | 35183 ft | 493 kts | 140° |
| 2026-05-04 01:51 | 54.54017 | -131.69308 | 35174 ft | 493 kts | 139° |
| 2026-05-04 01:51 | 54.48876 | -131.61465 | 35179 ft | 494 kts | 139° |
| 2026-05-04 01:52 | 54.43783 | -131.53723 | 35183 ft | 493 kts | 139° |
| 2026-05-04 01:52 | 54.38641 | -131.45935 | 35181 ft | 494 kts | 139° |
| 2026-05-04 01:53 | 54.33531 | -131.38222 | 35181 ft | 492 kts | 139° |
| 2026-05-04 01:53 | 54.28405 | -131.30515 | 35183 ft | 493 kts | 140° |
| 2026-05-04 01:54 | 54.23257 | -131.22792 | 35182 ft | 493 kts | 140° |
| 2026-05-04 01:54 | 54.18130 | -131.15128 | 35175 ft | 493 kts | 140° |
| 2026-05-04 01:55 | 54.12964 | -131.07433 | 35175 ft | 493 kts | 139° |
| 2026-05-04 01:55 | 54.07805 | -130.99773 | 35167 ft | 493 kts | 139° |
| 2026-05-04 01:56 | 54.02674 | -130.92186 | 35167 ft | 493 kts | 140° |
| 2026-05-04 01:56 | 53.97491 | -130.84551 | 35166 ft | 494 kts | 140° |
| 2026-05-04 01:57 | 53.92359 | -130.77011 | 35164 ft | 492 kts | 139° |
| 2026-05-04 01:57 | 53.87165 | -130.69397 | 35156 ft | 493 kts | 139° |
| 2026-05-04 01:58 | 53.82000 | -130.61861 | 35153 ft | 492 kts | 139° |
| 2026-05-04 01:58 | 53.76829 | -130.54347 | 35155 ft | 493 kts | 139° |
| 2026-05-04 01:59 | 53.71641 | -130.46838 | 35151 ft | 492 kts | 139° |
| 2026-05-04 01:59 | 53.66461 | -130.39362 | 35143 ft | 492 kts | 139° |
| 2026-05-04 02:00 | 53.61256 | -130.31868 | 35133 ft | 493 kts | 140° |
| 2026-05-04 02:00 | 53.56077 | -130.24435 | 35127 ft | 492 kts | 139° |
| 2026-05-04 02:01 | 53.50879 | -130.17003 | 35119 ft | 491 kts | 139° |
| 2026-05-04 02:01 | 53.45715 | -130.09642 | 35118 ft | 491 kts | 140° |
| 2026-05-04 02:02 | 53.40498 | -130.02235 | 35108 ft | 491 kts | 139° |
| 2026-05-04 02:02 | 53.35303 | -129.94888 | 35101 ft | 491 kts | 139° |
| 2026-05-04 02:03 | 53.30148 | -129.87616 | 35081 ft | 489 kts | 139° |
| 2026-05-04 02:03 | 53.24931 | -129.80276 | 35091 ft | 490 kts | 139° |
| 2026-05-04 02:04 | 53.19736 | -129.72996 | 35068 ft | 489 kts | 139° |
| 2026-05-04 02:04 | 53.14523 | -129.65714 | 35064 ft | 489 kts | 139° |
| 2026-05-04 02:05 | 53.09344 | -129.58501 | 35061 ft | 488 kts | 139° |
| 2026-05-04 02:05 | 53.04155 | -129.51303 | 35049 ft | 488 kts | 139° |
| 2026-05-04 02:06 | 52.99099 | -129.43886 | 35032 ft | 487 kts | 135° |
| 2026-05-04 02:06 | 52.94256 | -129.36110 | 35028 ft | 487 kts | 133° |
| 2026-05-04 02:07 | 52.89422 | -129.28259 | 35027 ft | 487 kts | 134° |
| 2026-05-04 02:07 | 52.84587 | -129.20526 | 35028 ft | 487 kts | 134° |
| 2026-05-04 02:08 | 52.79690 | -129.12787 | 35021 ft | 486 kts | 135° |
| 2026-05-04 02:08 | 52.74828 | -129.05156 | 35022 ft | 486 kts | 135° |
| 2026-05-04 02:09 | 52.69942 | -128.97528 | 35024 ft | 487 kts | 135° |
| 2026-05-04 02:09 | 52.65014 | -128.89862 | 35020 ft | 486 kts | 135° |
| 2026-05-04 02:10 | 52.60120 | -128.82274 | 35022 ft | 485 kts | 135° |
| 2026-05-04 02:10 | 52.55233 | -128.74722 | 35017 ft | 486 kts | 135° |
| 2026-05-04 02:11 | 52.50327 | -128.67168 | 35017 ft | 484 kts | 135° |
| 2026-05-04 02:11 | 52.45416 | -128.59625 | 35013 ft | 485 kts | 135° |
| 2026-05-04 02:12 | 52.40514 | -128.52109 | 35020 ft | 484 kts | 134° |
| 2026-05-04 02:12 | 52.35614 | -128.44635 | 35011 ft | 485 kts | 134° |
| 2026-05-04 02:13 | 52.30715 | -128.37180 | 35010 ft | 483 kts | 134° |
| 2026-05-04 02:13 | 52.25817 | -128.29755 | 35018 ft | 484 kts | 135° |
| 2026-05-04 02:14 | 52.20886 | -128.22305 | 35016 ft | 483 kts | 135° |
| 2026-05-04 02:14 | 52.15986 | -128.14922 | 35020 ft | 483 kts | 135° |
| 2026-05-04 02:15 | 52.11055 | -128.07521 | 35027 ft | 482 kts | 135° |
| 2026-05-04 02:15 | 52.06142 | -128.00162 | 35020 ft | 483 kts | 135° |
| 2026-05-04 02:16 | 52.01208 | -127.92793 | 35017 ft | 482 kts | 135° |
| 2026-05-04 02:16 | 51.96267 | -127.85442 | 35008 ft | 483 kts | 135° |
| 2026-05-04 02:17 | 51.91357 | -127.78165 | 35021 ft | 482 kts | 135° |
| 2026-05-04 02:17 | 51.86412 | -127.70863 | 35023 ft | 483 kts | 135° |
| 2026-05-04 02:18 | 51.81463 | -127.63567 | 35026 ft | 481 kts | 134° |
| 2026-05-04 02:18 | 51.76537 | -127.56335 | 35036 ft | 483 kts | 135° |
| 2026-05-04 02:19 | 51.71600 | -127.49106 | 35040 ft | 481 kts | 134° |
| 2026-05-04 02:19 | 51.66643 | -127.41868 | 35031 ft | 482 kts | 134° |
| 2026-05-04 02:20 | 51.61672 | -127.34630 | 35025 ft | 481 kts | 135° |
| 2026-05-04 02:20 | 51.56740 | -127.27476 | 35024 ft | 482 kts | 135° |
| 2026-05-04 02:21 | 51.51771 | -127.20281 | 35024 ft | 481 kts | 135° |
| 2026-05-04 02:21 | 51.46817 | -127.13132 | 35029 ft | 482 kts | 135° |
| 2026-05-04 02:22 | 51.41842 | -127.05974 | 35030 ft | 481 kts | 135° |
| 2026-05-04 02:22 | 51.36872 | -126.98855 | 35031 ft | 480 kts | 134° |
| 2026-05-04 02:23 | 51.31911 | -126.91766 | 35050 ft | 482 kts | 135° |
| 2026-05-04 02:23 | 51.26940 | -126.84677 | 35061 ft | 480 kts | 134° |
| 2026-05-04 02:24 | 51.21965 | -126.77610 | 35077 ft | 480 kts | 134° |
| 2026-05-04 02:24 | 51.16969 | -126.70531 | 35067 ft | 481 kts | 134° |
| 2026-05-04 02:25 | 51.12011 | -126.63531 | 35044 ft | 480 kts | 134° |
| 2026-05-04 02:25 | 51.06998 | -126.56473 | 35023 ft | 480 kts | 134° |
| 2026-05-04 02:26 | 51.02008 | -126.49478 | 34996 ft | 480 kts | 134° |
| 2026-05-04 02:26 | 50.97042 | -126.42526 | 34999 ft | 480 kts | 134° |
| 2026-05-04 02:27 | 50.92022 | -126.35525 | 35018 ft | 479 kts | 134° |
| 2026-05-04 02:27 | 50.87045 | -126.28606 | 35032 ft | 480 kts | 134° |
| 2026-05-04 02:28 | 50.82047 | -126.21671 | 35042 ft | 481 kts | 134° |
| 2026-05-04 02:28 | 50.77039 | -126.14746 | 35034 ft | 479 kts | 134° |
| 2026-05-04 02:29 | 50.72047 | -126.07862 | 35026 ft | 479 kts | 134° |
| 2026-05-04 02:29 | 50.67025 | -126.00957 | 35011 ft | 478 kts | 134° |
| 2026-05-04 02:30 | 50.62056 | -125.94149 | 34997 ft | 478 kts | 134° |
| 2026-05-04 02:30 | 50.57027 | -125.87279 | 34971 ft | 477 kts | 134° |
| 2026-05-04 02:31 | 50.52020 | -125.80463 | 34963 ft | 479 kts | 134° |
| 2026-05-04 02:31 | 50.47024 | -125.73689 | 34947 ft | 476 kts | 134° |
| 2026-05-04 02:32 | 50.42022 | -125.66911 | 34952 ft | 478 kts | 134° |
| 2026-05-04 02:32 | 50.37005 | -125.60129 | 34980 ft | 477 kts | 133° |